Terminal Aerodrome Forecast
Issued by NWS Wichita, KS

Home | Current Version | Previous Version | Text Only | Print | Product List | Glossary On
Versions: 1 2 3 4 5 6 7 8 9 10 11 12 13 14 15 16 17
000
FTUS43 KICT 240524
TAFICT
TAF
KICT 240524Z 2406/2506 29005KT P6SM SKC
     FM241700 22007KT P6SM SKC
     FM242000 20013KT P6SM SKC
     FM250000 18010KT P6SM SKC=

USA.gov is the U.S. government's official web portal to all federal, state and local government web resources and services.